Time;durP1;ratioP1;P1;durP2;ratioP2;P2;SDS_P1;SDS_P2;PMS_P1;PMS_P2;Temp;Humidity;BMP_temperature;BMP_pressure;BME280_temperature;BME280_humidity;BME280_pressure;Samples;Min_cycle;Max_cycle;Signal;HPM_P1;HPM_P2
2023/08/19 00:01:52;;;;;;;5.32;4.10;;;;;;;18.07;63.09;96558.56;5052450;28;20081;-69
2023/08/19 00:04:20;;;;;;;4.57;4.15;;;;;;;18.11;62.90;96553.91;5052429;28;20045;-69
2023/08/19 00:06:48;;;;;;;6.50;3.65;;;;;;;18.14;63.00;96541.31;5052279;28;20457;-69
2023/08/19 00:09:16;;;;;;;5.25;4.00;;;;;;;18.18;62.74;96536.66;5052371;28;20513;-69
2023/08/19 00:11:44;;;;;;;4.28;3.88;;;;;;;18.20;63.34;96540.06;5052295;28;20103;-69
2023/08/19 00:14:11;;;;;;;3.55;3.25;;;;;;;18.17;63.70;96537.63;5052385;28;20490;-69
2023/08/19 00:16:38;;;;;;;4.55;3.67;;;;;;;18.14;63.62;96536.03;5055174;28;20060;-69
2023/08/19 00:19:05;;;;;;;5.88;3.63;;;;;;;18.15;63.39;96535.06;5055881;28;20048;-69
2023/08/19 00:21:33;;;;;;;4.22;3.83;;;;;;;18.19;63.71;96538.38;5055791;28;20457;-69
2023/08/19 00:24:00;;;;;;;3.80;3.45;;;;;;;18.19;63.67;96533.06;5055781;28;20139;-69
2023/08/19 00:26:29;;;;;;;4.13;3.83;;;;;;;18.19;63.25;96533.91;5055831;28;20049;-69
2023/08/19 00:28:56;;;;;;;4.13;3.60;;;;;;;18.22;63.57;96540.81;5055791;28;20048;-69
2023/08/19 00:31:25;;;;;;;5.70;3.60;;;;;;;18.25;63.63;96534.44;5056008;28;20045;-69
2023/08/19 00:33:52;;;;;;;5.25;3.40;;;;;;;18.16;63.12;96541.22;5055763;28;20045;-69
2023/08/19 00:36:19;;;;;;;5.18;3.67;;;;;;;18.11;62.92;96536.25;5055523;28;20049;-69
2023/08/19 00:38:48;;;;;;;5.20;3.28;;;;;;;18.12;63.24;96537.94;5055530;28;20064;-69
2023/08/19 00:41:15;;;;;;;5.43;3.35;;;;;;;18.04;63.48;96530.50;5055637;28;20479;-69
2023/08/19 00:43:45;;;;;;;5.20;3.67;;;;;;;18.00;63.81;96526.34;5055591;28;20057;-69
2023/08/19 00:46:12;;;;;;;3.85;3.47;;;;;;;18.03;64.03;96527.97;5055491;28;20080;-69
2023/08/19 00:48:40;;;;;;;7.78;3.30;;;;;;;17.99;63.82;96529.09;5055388;28;20081;-69
2023/08/19 00:51:09;;;;;;;4.35;3.75;;;;;;;17.96;64.17;96527.53;5055377;28;20085;-69
2023/08/19 00:53:37;;;;;;;9.75;3.50;;;;;;;17.94;64.10;96530.28;5055133;28;20060;-69
2023/08/19 00:56:04;;;;;;;6.50;4.00;;;;;;;17.91;64.75;96542.88;5055299;28;20049;-69
2023/08/19 00:58:32;;;;;;;3.78;3.38;;;;;;;17.83;64.66;96551.31;5055442;28;20045;-69
2023/08/19 01:01:02;;;;;;;4.75;3.47;;;;;;;17.81;65.05;96547.94;5055244;28;20048;-69
2023/08/19 01:03:29;;;;;;;4.28;3.45;;;;;;;17.84;64.99;96553.00;5055179;28;20045;-69
2023/08/19 01:06:17;;;;;;;4.53;3.63;;;;;;;17.77;64.79;96565.81;5054985;28;20099;-69
2023/08/19 01:08:56;;;;;;;6.72;4.13;;;;;;;17.69;64.78;96562.81;5055108;28;20080;-69
2023/08/19 01:11:49;;;;;;;5.32;3.58;;;;;;;17.64;64.89;96552.53;5054825;28;20052;-69
2023/08/19 01:14:30;;;;;;;6.30;3.78;;;;;;;17.58;65.86;96554.78;5054947;28;20099;-69
2023/08/19 01:17:03;;;;;;;4.28;3.65;;;;;;;17.56;66.05;96576.03;5055208;28;20048;-69
2023/08/19 01:19:32;;;;;;;6.47;3.65;;;;;;;17.52;66.41;96585.94;5054545;28;20041;-69
2023/08/19 01:22:04;;;;;;;5.95;3.75;;;;;;;17.49;66.51;96590.59;5054777;28;20053;-69
2023/08/19 01:24:41;;;;;;;4.97;3.63;;;;;;;17.49;67.29;96586.13;5054992;28;20479;-69
2023/08/19 01:27:23;;;;;;;4.65;3.70;;;;;;;17.42;67.36;96603.34;5054602;28;20045;-69
2023/08/19 01:29:55;;;;;;;4.47;3.50;;;;;;;17.40;67.17;96602.63;5054564;28;20053;-69
2023/08/19 01:32:25;;;;;;;5.10;3.25;;;;;;;17.40;67.11;96595.53;5054361;28;20505;-69
2023/08/19 01:34:58;;;;;;;4.88;3.90;;;;;;;17.37;67.94;96593.06;5054542;28;20049;-69
2023/08/19 01:37:31;;;;;;;4.63;3.50;;;;;;;17.41;67.92;96591.09;5054272;28;20479;-69
2023/08/19 01:40:02;;;;;;;4.47;4.07;;;;;;;17.40;68.40;96587.59;5054443;28;20080;-69
2023/08/19 01:42:35;;;;;;;4.03;3.63;;;;;;;17.38;67.83;96588.66;5054409;28;20166;-69
2023/08/19 01:45:03;;;;;;;4.78;3.33;;;;;;;17.36;67.36;96578.16;5054265;28;20049;-69
2023/08/19 01:47:31;;;;;;;6.05;3.50;;;;;;;17.36;68.21;96572.03;5054326;28;20048;-69
2023/08/19 01:49:59;;;;;;;6.07;4.40;;;;;;;17.34;68.68;96561.56;5054578;28;20140;-69
2023/08/19 01:52:27;;;;;;;8.18;4.30;;;;;;;17.26;69.15;96563.84;5054115;28;20052;-69
2023/08/19 01:54:56;;;;;;;4.47;4.07;;;;;;;17.18;70.06;96567.00;5054042;28;20078;-69
2023/08/19 01:57:27;;;;;;;6.78;4.20;;;;;;;17.19;69.88;96555.50;5054057;28;20056;-69
2023/08/19 01:59:55;;;;;;;4.50;3.95;;;;;;;17.33;70.22;96559.88;5053829;28;20049;-69
2023/08/19 02:02:24;;;;;;;8.15;4.10;;;;;;;17.38;69.89;96549.84;5053991;28;20049;-69
2023/08/19 02:04:52;;;;;;;5.20;4.05;;;;;;;17.46;69.86;96554.63;5053978;28;20084;-70
2023/08/19 02:07:19;;;;;;;8.43;3.90;;;;;;;17.53;69.44;96555.06;5054075;28;20045;-69
2023/08/19 02:09:47;;;;;;;9.43;3.92;;;;;;;17.62;69.40;96556.25;5053805;28;20128;-69
2023/08/19 02:12:15;;;;;;;5.93;3.72;;;;;;;17.67;69.67;96541.75;5053721;28;20057;-69
2023/08/19 02:14:43;;;;;;;3.83;3.53;;;;;;;17.70;69.86;96534.59;5053781;28;20049;-69
2023/08/19 02:17:13;;;;;;;4.35;3.80;;;;;;;17.77;70.09;96526.16;5053707;28;20092;-69
2023/08/19 02:19:41;;;;;;;4.07;3.60;;;;;;;17.82;69.50;96525.81;5053402;28;20045;-69
2023/08/19 02:22:08;;;;;;;3.90;3.60;;;;;;;17.91;66.47;96533.13;5053824;28;20045;-70
2023/08/19 02:24:36;;;;;;;6.20;3.90;;;;;;;18.07;66.11;96537.38;5053645;28;20056;-69
2023/08/19 02:27:03;;;;;;;5.22;3.55;;;;;;;18.22;65.27;96538.16;5053552;28;20045;-69
2023/08/19 02:29:31;;;;;;;5.80;3.50;;;;;;;18.36;64.34;96539.00;5053505;28;20072;-69
2023/08/19 02:31:59;;;;;;;10.30;3.58;;;;;;;18.52;65.17;96541.41;5053248;28;20083;-69
2023/08/19 02:34:27;;;;;;;9.90;3.53;;;;;;;18.57;65.18;96523.38;5053425;28;20041;-69
2023/08/19 02:36:54;;;;;;;3.75;3.40;;;;;;;18.54;64.74;96505.06;5053484;28;20045;-69
2023/08/19 02:39:22;;;;;;;5.90;3.83;;;;;;;18.47;63.76;96496.72;5052928;28;20453;-69
2023/08/19 02:41:49;;;;;;;5.13;3.58;;;;;;;18.48;63.13;96493.09;5053355;28;20045;-69
2023/08/19 02:44:18;;;;;;;7.40;4.03;;;;;;;18.50;63.34;96485.06;5053204;28;20049;-69
2023/08/19 02:46:46;;;;;;;7.78;3.88;;;;;;;18.68;63.12;96494.34;5053174;28;20388;-69
2023/08/19 02:49:14;;;;;;;4.93;3.70;;;;;;;18.78;62.56;96497.16;5053077;28;20053;-69
2023/08/19 02:51:42;;;;;;;6.70;3.92;;;;;;;18.88;62.61;96493.84;5053295;28;20041;-69
2023/08/19 02:54:10;;;;;;;6.03;3.97;;;;;;;18.96;62.27;96498.59;5053056;28;20562;-69
2023/08/19 02:56:37;;;;;;;5.47;3.85;;;;;;;19.05;62.41;96497.91;5053335;28;20111;-69
2023/08/19 02:59:05;;;;;;;5.65;3.55;;;;;;;19.12;61.99;96490.41;5053397;28;20045;-69
2023/08/19 03:01:32;;;;;;;5.82;3.65;;;;;;;19.22;62.15;96501.16;5053224;28;20048;-69
2023/08/19 03:04:01;;;;;;;6.82;3.85;;;;;;;19.29;61.53;96505.91;5053087;28;20057;-69
2023/08/19 03:06:30;;;;;;;6.70;3.70;;;;;;;19.40;61.33;96514.84;5053053;28;20102;-69
2023/08/19 03:09:08;;;;;;;3.65;3.35;;;;;;;19.47;62.39;96523.22;5053129;28;20095;-69
2023/08/19 03:11:37;;;;;;;6.80;3.97;;;;;;;19.49;61.97;96521.28;5052831;28;20056;-69
2023/08/19 03:14:04;;;;;;;6.88;4.07;;;;;;;19.49;62.56;96511.53;5052803;28;20053;-69
2023/08/19 03:16:32;;;;;;;5.60;3.90;;;;;;;19.51;62.89;96495.50;5052893;28;20045;-69
2023/08/19 03:18:59;;;;;;;4.35;3.90;;;;;;;19.42;63.69;96505.81;5052849;28;20049;-69
2023/08/19 03:21:26;;;;;;;6.70;3.75;;;;;;;19.31;63.08;96521.69;5052731;28;20053;-69
2023/08/19 03:23:54;;;;;;;5.68;3.90;;;;;;;19.20;62.07;96519.81;5052787;28;20053;-70
2023/08/19 03:26:22;;;;;;;3.70;3.17;;;;;;;19.12;62.84;96490.41;5052735;28;20453;-69
2023/08/19 03:28:49;;;;;;;9.93;3.63;;;;;;;18.94;63.30;96482.81;5052830;28;20410;-69
2023/08/19 03:31:16;;;;;;;5.82;2.92;;;;;;;18.85;63.42;96468.44;5052680;28;20049;-69
2023/08/19 03:33:43;;;;;;;7.63;3.72;;;;;;;18.87;63.91;96473.63;5052831;28;20490;-69
2023/08/19 03:36:11;;;;;;;4.30;3.55;;;;;;;18.99;64.30;96471.88;5052635;28;20448;-69
2023/08/19 03:38:38;;;;;;;4.30;3.45;;;;;;;19.03;64.93;96498.03;5052780;28;20399;-69
2023/08/19 03:41:06;;;;;;;5.88;3.75;;;;;;;19.09;64.51;96487.97;5052579;28;20128;-69
2023/08/19 03:43:34;;;;;;;5.70;4.15;;;;;;;19.17;64.14;96483.78;5052560;28;20051;-69
2023/08/19 03:46:01;;;;;;;6.18;3.88;;;;;;;19.15;64.31;96480.41;5052795;28;20410;-69
2023/08/19 03:48:28;;;;;;;6.43;3.70;;;;;;;19.09;63.94;96477.38;5052662;28;20083;-69
2023/08/19 03:50:55;;;;;;;3.80;3.40;;;;;;;19.11;64.48;96478.94;5054388;28;20099;-69
2023/08/19 03:53:23;;;;;;;4.78;4.13;;;;;;;19.09;63.97;96488.81;5056428;28;20517;-69
2023/08/19 03:55:50;;;;;;;3.78;3.30;;;;;;;19.08;64.04;96508.31;5056424;28;20048;-69
2023/08/19 03:58:19;;;;;;;7.30;3.85;;;;;;;19.12;63.97;96520.41;5056402;28;20049;-69
2023/08/19 04:00:47;;;;;;;9.90;3.78;;;;;;;19.17;64.36;96528.84;5056371;28;20060;-69
2023/08/19 04:03:14;;;;;;;5.70;3.75;;;;;;;19.26;64.61;96537.13;5056249;28;20083;-69
2023/08/19 04:05:41;;;;;;;4.78;4.18;;;;;;;19.29;63.77;96544.81;5056254;28;20077;-69
2023/08/19 04:08:09;;;;;;;7.47;4.03;;;;;;;19.30;63.91;96539.41;5056086;28;20525;-69
2023/08/19 04:10:36;;;;;;;6.88;3.60;;;;;;;19.30;63.72;96542.06;5056173;28;20045;-70
2023/08/19 04:13:03;;;;;;;5.43;4.00;;;;;;;19.37;64.52;96537.16;5056132;28;20077;-69
2023/08/19 04:15:33;;;;;;;5.57;3.70;;;;;;;19.41;64.10;96540.41;5056099;28;20073;-69
2023/08/19 04:18:00;;;;;;;5.18;4.03;;;;;;;19.41;64.29;96543.06;5056076;28;20075;-70
2023/08/19 04:20:27;;;;;;;4.72;3.80;;;;;;;19.39;64.87;96543.16;5055738;28;20084;-69
2023/08/19 04:22:55;;;;;;;7.57;4.20;;;;;;;19.40;64.51;96541.38;5056004;28;20048;-69
2023/08/19 04:25:22;;;;;;;8.57;3.70;;;;;;;19.43;64.66;96535.84;5055916;28;20482;-70
2023/08/19 04:27:49;;;;;;;3.85;3.50;;;;;;;19.42;65.00;96523.56;5055773;28;20091;-69
2023/08/19 04:30:17;;;;;;;6.78;3.65;;;;;;;19.35;64.04;96531.09;5055771;28;20549;-69
2023/08/19 04:32:46;;;;;;;4.68;3.88;;;;;;;19.30;64.92;96528.78;5055736;28;20087;-69
2023/08/19 04:35:14;;;;;;;8.55;3.85;;;;;;;19.32;64.52;96536.63;5055758;28;20073;-69
2023/08/19 04:37:41;;;;;;;8.90;3.78;;;;;;;19.35;63.82;96533.75;5055821;28;20053;-69
2023/08/19 04:40:10;;;;;;;3.80;3.28;;;;;;;19.53;63.87;96541.31;5055828;28;20376;-69
2023/08/19 04:42:37;;;;;;;4.53;3.22;;;;;;;19.77;63.23;96557.19;5055832;28;20051;-69
2023/08/19 04:45:06;;;;;;;3.47;3.17;;;;;;;19.95;62.10;96557.63;5055817;28;20053;-69
2023/08/19 04:47:33;;;;;;;3.63;3.25;;;;;;;20.33;63.14;96550.38;5055307;28;20418;-69
2023/08/19 04:50:03;;;;;;;4.45;3.38;;;;;;;20.86;62.33;96549.88;5055325;28;20140;-70
2023/08/19 04:52:31;;;;;;;3.47;3.17;;;;;;;21.46;60.88;96558.31;5055401;28;20457;-69
2023/08/19 04:54:58;;;;;;;4.70;3.10;;;;;;;22.02;57.58;96541.41;5055289;28;20096;-69
2023/08/19 04:57:25;;;;;;;4.47;3.17;;;;;;;22.50;56.18;96529.31;5055265;28;20092;-70
2023/08/19 04:59:52;;;;;;;6.22;2.83;;;;;;;23.00;54.45;96518.84;5055317;28;20116;-70
2023/08/19 05:02:19;;;;;;;4.25;3.03;;;;;;;23.49;53.10;96521.59;5055079;28;20059;-70
2023/08/19 05:04:46;;;;;;;2.80;2.60;;;;;;;23.80;49.67;96523.25;5055058;28;20060;-70
2023/08/19 05:07:15;;;;;;;3.17;2.35;;;;;;;23.71;48.94;96528.47;5054898;28;20465;-70
2023/08/19 05:09:43;;;;;;;4.25;2.72;;;;;;;23.80;49.19;96524.13;5055044;28;20049;-70
2023/08/19 05:12:10;;;;;;;7.03;3.15;;;;;;;23.88;48.18;96525.22;5054992;28;20056;-70
2023/08/19 05:14:37;;;;;;;7.63;2.53;;;;;;;23.60;48.88;96529.47;5054810;28;20053;-69
2023/08/19 05:17:05;;;;;;;3.47;3.15;;;;;;;23.46;49.41;96527.22;5054870;28;20048;-70
2023/08/19 05:19:33;;;;;;;5.47;2.85;;;;;;;23.33;48.83;96532.81;5054464;28;20045;-69
2023/08/19 05:22:01;;;;;;;3.40;3.10;;;;;;;23.33;50.00;96535.47;5055014;28;20123;-69
2023/08/19 05:24:30;;;;;;;4.07;3.05;;;;;;;23.49;50.24;96537.63;5054925;28;20049;-70
2023/08/19 05:26:57;;;;;;;4.15;2.60;;;;;;;23.64;49.30;96545.19;5054912;28;20045;-69
2023/08/19 05:29:25;;;;;;;5.63;3.08;;;;;;;23.65;47.84;96549.53;5054715;28;20045;-70
2023/08/19 05:31:52;;;;;;;5.35;2.92;;;;;;;23.60;49.23;96544.66;5054576;28;20064;-70
2023/08/19 05:34:19;;;;;;;4.45;3.22;;;;;;;23.62;49.33;96545.34;5054513;28;20053;-69
2023/08/19 05:36:47;;;;;;;10.38;3.25;;;;;;;23.65;49.93;96536.19;5054515;28;20483;-70
2023/08/19 05:39:14;;;;;;;11.77;3.83;;;;;;;23.88;48.17;96528.75;5054510;28;20132;-69
2023/08/19 05:41:43;;;;;;;3.92;2.67;;;;;;;24.26;48.17;96530.69;5054413;28;20055;-69
2023/08/19 05:44:10;;;;;;;4.80;3.25;;;;;;;24.84;48.95;96524.22;5054578;28;20045;-70
2023/08/19 05:46:37;;;;;;;3.38;2.75;;;;;;;25.41;45.52;96524.22;5054295;28;20088;-70
2023/08/19 05:49:04;;;;;;;4.95;2.95;;;;;;;25.67;45.45;96518.94;5054353;28;20500;-69
2023/08/19 05:51:32;;;;;;;7.45;2.55;;;;;;;25.88;44.08;96517.75;5054167;28;20099;-69
2023/08/19 05:54:00;;;;;;;6.13;3.00;;;;;;;26.04;43.94;96521.56;5054214;28;20140;-69
2023/08/19 05:56:28;;;;;;;5.63;3.08;;;;;;;26.14;45.02;96529.50;5054097;28;20140;-69
2023/08/19 05:58:56;;;;;;;7.82;2.60;;;;;;;26.15;44.55;96532.03;5054071;28;20045;-69
2023/08/19 06:01:24;;;;;;;5.45;2.72;;;;;;;26.15;43.82;96523.16;5054353;28;20081;-69
2023/08/19 06:03:52;;;;;;;4.97;2.63;;;;;;;26.20;44.01;96513.66;5053991;28;20124;-69
2023/08/19 06:06:19;;;;;;;4.15;3.22;;;;;;;26.33;45.69;96521.28;5053827;28;20049;-69
2023/08/19 06:08:46;;;;;;;3.65;2.90;;;;;;;26.64;44.04;96530.69;5054101;28;20106;-69
2023/08/19 06:11:13;;;;;;;5.78;2.90;;;;;;;27.01;42.81;96534.03;5053979;28;20051;-69
2023/08/19 06:13:40;;;;;;;9.38;2.80;;;;;;;27.44;41.70;96539.34;5052957;28;20396;-69
2023/08/19 06:16:09;;;;;;;5.65;2.70;;;;;;;27.93;40.06;96542.25;5053635;28;20460;-70
2023/08/19 06:18:36;;;;;;;5.18;2.85;;;;;;;28.38;38.16;96545.41;5053691;28;20061;-69
2023/08/19 06:21:04;;;;;;;6.95;2.40;;;;;;;28.83;38.06;96550.34;5053507;28;20052;-69
2023/08/19 06:23:32;;;;;;;3.67;2.53;;;;;;;29.20;37.45;96548.00;5053610;28;20053;-69
2023/08/19 06:25:59;;;;;;;6.05;2.53;;;;;;;29.37;35.67;96540.66;5053908;28;20044;-69
2023/08/19 06:28:27;;;;;;;5.55;2.25;;;;;;;29.38;35.26;96559.34;5053653;28;20049;-69
2023/08/19 06:30:54;;;;;;;4.85;2.55;;;;;;;29.39;34.87;96552.09;5053474;28;20407;-69
2023/08/19 06:33:24;;;;;;;10.18;3.35;;;;;;;29.40;35.25;96540.31;5053415;28;20048;-69
2023/08/19 06:35:53;;;;;;;3.13;2.73;;;;;;;29.42;35.49;96545.50;5053394;28;20049;-69
2023/08/19 06:38:22;;;;;;;4.60;2.70;;;;;;;29.44;34.74;96549.72;5053657;28;20045;-69
2023/08/19 06:40:56;;;;;;;7.88;2.83;;;;;;;29.51;34.24;96548.00;5053269;28;20406;-69
2023/08/19 06:43:27;;;;;;;4.53;3.05;;;;;;;29.38;35.47;96547.75;5053228;28;20044;-69
2023/08/19 06:45:55;;;;;;;5.45;3.15;;;;;;;29.38;35.23;96548.56;5053360;28;20052;-69
2023/08/19 06:48:25;;;;;;;5.82;2.67;;;;;;;29.19;35.52;96559.81;5053447;28;20045;-69
2023/08/19 06:50:53;;;;;;;6.18;2.90;;;;;;;28.76;37.73;96566.31;5053318;28;20084;-69
2023/08/19 06:53:21;;;;;;;7.15;2.75;;;;;;;28.66;36.83;96557.63;5053259;28;20102;-69
2023/08/19 06:55:56;;;;;;;7.15;2.70;;;;;;;28.85;39.12;96542.91;5053219;28;20132;-69
2023/08/19 06:58:26;;;;;;;5.75;2.42;;;;;;;29.18;36.47;96550.03;5053094;28;20045;-69
2023/08/19 07:01:00;;;;;;;4.33;2.67;;;;;;;29.39;34.33;96550.25;5053159;28;20135;-69
2023/08/19 07:03:32;;;;;;;7.90;3.38;;;;;;;29.41;35.16;96536.63;5053113;28;20683;-68
2023/08/19 07:06:01;;;;;;;3.97;2.70;;;;;;;29.33;35.22;96525.88;5052977;28;20049;-69
2023/08/19 07:08:30;;;;;;;7.70;2.45;;;;;;;29.29;35.54;96527.25;5053031;28;20045;-69
2023/08/19 07:11:00;;;;;;;5.60;3.17;;;;;;;29.33;36.39;96518.66;5052960;28;20460;-69
2023/08/19 07:13:28;;;;;;;6.05;2.78;;;;;;;29.16;36.04;96522.47;5052839;28;20469;-69
2023/08/19 07:16:02;;;;;;;7.57;2.78;;;;;;;28.86;36.74;96528.44;5052922;28;20052;-68
2023/08/19 07:18:37;;;;;;;5.50;3.10;;;;;;;28.51;37.31;96531.44;5052920;28;20098;-69
2023/08/19 07:21:05;;;;;;;4.97;2.88;;;;;;;28.30;38.15;96546.28;5052758;28;20049;-69
2023/08/19 07:23:34;;;;;;;5.88;2.78;;;;;;;28.25;38.45;96562.03;5052974;28;20552;-69
2023/08/19 07:26:01;;;;;;;4.78;3.45;;;;;;;28.53;37.67;96564.38;5056512;28;20482;-68
2023/08/19 07:28:30;;;;;;;4.68;3.00;;;;;;;29.16;35.03;96571.75;5057206;28;20518;-69
2023/08/19 07:30:59;;;;;;;6.25;3.20;;;;;;;29.75;35.27;96578.50;5056865;28;20395;-69
2023/08/19 07:33:27;;;;;;;7.18;3.95;;;;;;;29.63;34.93;96574.53;5056758;28;20049;-68
2023/08/19 07:35:55;;;;;;;5.40;3.55;;;;;;;29.69;34.60;96586.44;5056799;28;20045;-68
2023/08/19 07:38:23;;;;;;;5.63;2.97;;;;;;;29.46;33.90;96596.16;5057028;28;20406;-68
2023/08/19 07:40:51;;;;;;;11.70;3.05;;;;;;;29.37;36.49;96584.59;5057052;28;20470;-68
2023/08/19 07:43:19;;;;;;;4.15;3.33;;;;;;;29.33;36.54;96590.50;5056863;28;20072;-68
2023/08/19 07:45:49;;;;;;;4.80;2.80;;;;;;;29.03;34.87;96583.06;5056617;28;20056;-68
2023/08/19 07:48:16;;;;;;;9.20;3.88;;;;;;;28.80;35.95;96589.19;5056785;28;20122;-68
2023/08/19 07:50:43;;;;;;;7.93;2.78;;;;;;;28.64;36.92;96587.38;5056492;28;20098;-68
2023/08/19 07:53:12;;;;;;;5.85;2.97;;;;;;;28.42;36.58;96572.81;5056648;28;20045;-68
2023/08/19 07:55:41;;;;;;;3.63;2.45;;;;;;;28.03;35.97;96569.78;5056357;28;20130;-69
2023/08/19 07:58:08;;;;;;;2.80;2.03;;;;;;;27.75;35.56;96564.72;5056266;28;20494;-68
2023/08/19 08:00:37;;;;;;;5.88;2.60;;;;;;;27.50;36.45;96559.31;5056194;28;20095;-68
2023/08/19 08:03:06;;;;;;;5.95;2.85;;;;;;;27.31;37.87;96553.25;5056306;28;20088;-68
2023/08/19 08:05:33;;;;;;;6.00;3.00;;;;;;;27.03;38.48;96556.16;5056450;28;20053;-68
2023/08/19 08:08:01;;;;;;;8.27;2.97;;;;;;;27.04;40.09;96559.69;5056562;28;20049;-68
2023/08/19 08:10:30;;;;;;;5.00;2.53;;;;;;;27.09;40.54;96558.19;5056254;28;20128;-68
2023/08/19 08:12:57;;;;;;;10.10;3.15;;;;;;;27.12;41.61;96547.13;5056223;28;20041;-68
2023/08/19 08:15:24;;;;;;;7.00;3.67;;;;;;;27.18;43.96;96551.00;5056059;28;20049;-68
2023/08/19 08:17:52;;;;;;;10.40;5.43;;;;;;;27.18;44.27;96550.19;5056074;28;20049;-68
2023/08/19 08:20:22;;;;;;;6.90;3.58;;;;;;;27.04;41.58;96555.19;5055669;28;20110;-68
2023/08/19 08:22:49;;;;;;;5.32;3.17;;;;;;;27.00;40.24;96569.94;5056208;28;20613;-68
2023/08/19 08:25:17;;;;;;;5.13;2.70;;;;;;;27.11;41.32;96580.34;5055917;28;20132;-68
2023/08/19 08:27:47;;;;;;;5.18;2.90;;;;;;;27.35;48.32;96585.94;5055960;28;20045;-68
2023/08/19 08:30:15;;;;;;;6.18;3.03;;;;;;;27.80;46.06;96591.94;5055940;28;20090;-68
2023/08/19 08:32:42;;;;;;;10.18;2.80;;;;;;;28.48;39.48;96590.94;5055780;28;20049;-68
2023/08/19 08:35:10;;;;;;;8.30;2.60;;;;;;;29.24;37.62;96595.09;5055614;28;20115;-68
2023/08/19 08:37:37;;;;;;;3.53;2.40;;;;;;;29.72;35.97;96584.25;5054890;28;20103;-68
2023/08/19 08:40:07;;;;;;;8.50;3.50;;;;;;;29.77;36.73;96576.44;5055647;28;20051;-68
2023/08/19 08:42:34;;;;;;;6.18;3.55;;;;;;;29.92;38.93;96583.78;5055717;28;20379;-68
2023/08/19 08:45:04;;;;;;;5.35;3.15;;;;;;;29.84;36.66;96579.28;5055590;28;20052;-68
2023/08/19 08:47:32;;;;;;;6.25;3.17;;;;;;;29.70;36.44;96585.44;5055560;28;20049;-68
2023/08/19 08:50:00;;;;;;;4.45;2.63;;;;;;;29.81;33.54;96576.94;5055437;28;20147;-68
2023/08/19 08:52:27;;;;;;;5.80;2.97;;;;;;;30.11;34.26;96573.50;5055417;28;20487;-68
2023/08/19 08:54:57;;;;;;;4.95;3.10;;;;;;;30.33;32.02;96566.41;5055182;28;20132;-69
2023/08/19 08:57:24;;;;;;;6.07;2.67;;;;;;;30.14;32.41;96584.78;5055586;28;20045;-68
2023/08/19 08:59:53;;;;;;;4.95;2.80;;;;;;;29.85;32.56;96575.56;5055543;28;20056;-68
2023/08/19 09:02:24;;;;;;;6.07;3.03;;;;;;;29.55;34.45;96572.72;5055492;28;20045;-68
2023/08/19 09:04:51;;;;;;;4.40;3.03;;;;;;;29.67;34.22;96569.66;5055509;28;20053;-68
2023/08/19 09:07:27;;;;;;;4.95;2.78;;;;;;;29.48;33.85;96571.75;5055396;28;20060;-68
2023/08/19 09:09:55;;;;;;;4.47;2.92;;;;;;;29.74;32.34;96566.03;5055111;28;20044;-68
2023/08/19 09:12:23;;;;;;;4.70;2.83;;;;;;;29.89;33.34;96555.31;5055097;28;20052;-68
2023/08/19 09:14:56;;;;;;;4.78;3.03;;;;;;;29.86;33.49;96571.84;5054816;28;20515;-69
2023/08/19 09:17:25;;;;;;;3.22;2.92;;;;;;;29.40;33.36;96564.53;5054836;28;20056;-68
2023/08/19 09:19:54;;;;;;;7.78;3.63;;;;;;;29.19;34.58;96555.22;5054688;28;20053;-68
2023/08/19 09:22:24;;;;;;;5.40;3.27;;;;;;;29.28;34.73;96547.94;5054429;28;20053;-68
2023/08/19 09:24:53;;;;;;;7.28;3.72;;;;;;;29.50;34.68;96559.75;5054801;28;20461;-68
2023/08/19 09:27:27;;;;;;;10.50;3.22;;;;;;;29.55;35.49;96555.72;5054693;28;20052;-68
2023/08/19 09:29:55;;;;;;;5.82;2.83;;;;;;;29.55;34.03;96555.72;5054642;28;20051;-68
2023/08/19 09:32:32;;;;;;;5.93;3.28;;;;;;;29.57;34.49;96562.63;5054610;28;20446;-68
2023/08/19 09:35:05;;;;;;;8.02;3.03;;;;;;;29.61;33.87;96560.41;5054474;28;20171;-68
2023/08/19 09:37:33;;;;;;;6.38;4.10;;;;;;;29.62;33.53;96549.44;5054602;28;20081;-68
2023/08/19 09:40:02;;;;;;;5.57;3.17;;;;;;;29.69;33.80;96559.50;5054717;28;20495;-68
2023/08/19 09:42:29;;;;;;;6.25;3.40;;;;;;;29.61;34.05;96557.69;5054446;28;20067;-68
2023/08/19 09:44:56;;;;;;;4.40;2.80;;;;;;;29.82;32.57;96559.75;5054373;28;20060;-68
2023/08/19 09:47:24;;;;;;;3.22;2.92;;;;;;;30.07;32.99;96564.09;5053760;28;20556;-68
2023/08/19 09:49:54;;;;;;;5.22;2.67;;;;;;;30.35;32.89;96548.19;5053845;28;20095;-68
2023/08/19 09:52:21;;;;;;;4.00;2.75;;;;;;;30.79;31.67;96548.41;5054286;28;20049;-68
2023/08/19 09:54:53;;;;;;;6.05;2.80;;;;;;;30.85;30.75;96541.44;5054149;28;20048;-68
2023/08/19 09:57:31;;;;;;;5.35;3.20;;;;;;;30.84;32.36;96543.28;5053996;28;20049;-68
2023/08/19 09:59:59;;;;;;;4.85;3.35;;;;;;;31.09;31.37;96534.88;5054067;28;20045;-68
2023/08/19 10:02:26;;;;;;;6.43;2.80;;;;;;;31.18;30.57;96540.19;5054297;28;20041;-68
2023/08/19 10:04:57;;;;;;;5.68;2.90;;;;;;;31.41;30.27;96534.66;5054063;28;20044;-68
2023/08/19 10:07:31;;;;;;;10.85;3.22;;;;;;;31.24;29.96;96542.13;5053979;28;20521;-68
2023/08/19 10:10:03;;;;;;;7.68;3.20;;;;;;;31.06;29.74;96531.72;5053851;28;20099;-68
2023/08/19 10:12:35;;;;;;;6.78;2.72;;;;;;;31.04;30.28;96523.81;5053978;28;20040;-68
2023/08/19 10:15:04;;;;;;;6.65;2.97;;;;;;;30.93;30.49;96527.00;5053731;28;20499;-67
2023/08/19 10:17:34;;;;;;;4.78;2.90;;;;;;;31.15;30.60;96528.72;5053733;28;20123;-67
2023/08/19 10:20:07;;;;;;;5.57;2.55;;;;;;;31.26;28.25;96530.09;5053524;28;20053;-68
2023/08/19 10:22:39;;;;;;;5.13;2.55;;;;;;;31.41;28.81;96529.25;5053946;28;20049;-68
2023/08/19 10:25:11;;;;;;;3.10;2.80;;;;;;;31.54;28.60;96528.53;5053812;28;20045;-68
2023/08/19 10:27:38;;;;;;;8.13;3.00;;;;;;;31.29;29.16;96528.88;5053615;28;20124;-68
2023/08/19 10:30:28;;;;;;;8.40;2.92;;;;;;;31.24;28.86;96531.31;5053663;28;20206;-68
2023/08/19 10:32:56;;;;;;;9.13;2.88;;;;;;;31.24;28.70;96531.31;5053580;28;20077;-68
2023/08/19 10:35:24;;;;;;;8.60;2.90;;;;;;;31.30;28.72;96519.72;5053264;28;20510;-67
2023/08/19 10:37:53;;;;;;;4.47;2.60;;;;;;;31.31;28.08;96524.13;5053324;28;20044;-68
2023/08/19 10:40:23;;;;;;;3.08;2.42;;;;;;;31.50;27.55;96528.09;5053366;28;20132;-67
2023/08/19 10:42:56;;;;;;;2.50;2.30;;;;;;;31.50;26.65;96521.84;5053259;28;20501;-68
2023/08/19 10:45:23;;;;;;;4.55;2.75;;;;;;;31.55;27.27;96521.28;5053276;28;20495;-68
2023/08/19 10:47:52;;;;;;;4.93;2.50;;;;;;;31.87;28.12;96529.88;5053249;28;20114;-68
2023/08/19 10:50:21;;;;;;;2.80;2.30;;;;;;;31.85;26.16;96531.94;5053248;28;20487;-68
2023/08/19 10:53:04;;;;;;;4.43;2.22;;;;;;;31.83;26.95;96528.59;5053250;28;20482;-68
2023/08/19 10:55:53;;;;;;;4.88;2.85;;;;;;;31.77;27.01;96522.09;5053082;28;20052;-68
2023/08/19 10:58:24;;;;;;;7.22;2.60;;;;;;;31.83;27.33;96526.75;5053018;28;20049;-68
2023/08/19 11:00:52;;;;;;;5.78;3.03;;;;;;;31.83;26.82;96521.34;5052256;28;20045;-68
2023/08/19 11:03:20;;;;;;;6.65;3.05;;;;;;;31.84;27.48;96505.97;5053169;28;20399;-68
2023/08/19 11:05:50;;;;;;;4.88;2.60;;;;;;;31.96;28.09;96525.22;5053101;28;20053;-68
2023/08/19 11:08:19;;;;;;;5.85;2.88;;;;;;;31.92;27.64;96529.28;5053077;28;20041;-68
2023/08/19 11:10:47;;;;;;;2.97;2.67;;;;;;;32.01;28.20;96528.16;5053185;28;20045;-68
2023/08/19 11:13:15;;;;;;;5.20;2.40;;;;;;;32.06;28.19;96508.66;5052869;28;20049;-67
2023/08/19 11:15:43;;;;;;;2.72;2.47;;;;;;;31.95;28.46;96523.53;5052919;28;20403;-67
2023/08/19 11:18:11;;;;;;;3.17;2.83;;;;;;;32.05;28.12;96509.69;5052897;28;20048;-67
2023/08/19 11:20:41;;;;;;;5.63;3.08;;;;;;;32.11;27.93;96511.59;5052719;28;20060;-68
2023/08/19 11:23:09;;;;;;;4.88;2.70;;;;;;;32.21;28.36;96509.41;5052817;28;20044;-68
2023/08/19 11:25:39;;;;;;;5.90;2.65;;;;;;;31.98;28.40;96505.06;5051691;28;20502;-68
2023/08/19 11:28:07;;;;;;;5.68;3.00;;;;;;;31.77;29.14;96506.72;5053097;28;20053;-68
2023/08/19 11:30:36;;;;;;;3.00;2.70;;;;;;;31.43;29.47;96502.88;5052894;28;20475;-68
2023/08/19 11:33:04;;;;;;;10.18;3.30;;;;;;;31.14;29.93;96508.16;5052792;28;20045;-67
2023/08/19 11:35:42;;;;;;;9.43;3.22;;;;;;;31.01;30.93;96506.16;5052731;28;20052;-68
2023/08/19 11:38:14;;;;;;;3.45;2.72;;;;;;;31.00;30.27;96511.72;5052828;28;20096;-67
2023/08/19 11:40:43;;;;;;;4.35;3.03;;;;;;;30.87;30.76;96505.13;5052687;28;20049;-68
2023/08/19 11:43:13;;;;;;;9.63;3.30;;;;;;;30.76;30.75;96508.31;5052760;28;20044;-68